sensor_id;sensor_type;location;lat;lon;timestamp;temperature;humidity
48007;DHT22;33771;48.180;11.400;2022-07-29T00:01:32;18.90;99.90
48007;DHT22;33771;48.180;11.400;2022-07-29T00:03:58;18.90;99.90
48007;DHT22;33771;48.180;11.400;2022-07-29T00:06:23;18.80;99.90
48007;DHT22;33771;48.180;11.400;2022-07-29T00:08:49;18.80;99.90
48007;DHT22;33771;48.180;11.400;2022-07-29T00:11:14;18.80;99.90
48007;DHT22;33771;48.180;11.400;2022-07-29T00:13:40;18.80;99.90
48007;DHT22;33771;48.180;11.400;2022-07-29T00:16:05;18.80;99.90
48007;DHT22;33771;48.180;11.400;2022-07-29T00:18:31;18.70;99.90
48007;DHT22;33771;48.180;11.400;2022-07-29T00:20:57;18.70;99.90
48007;DHT22;33771;48.180;11.400;2022-07-29T00:23:22;18.70;99.90
48007;DHT22;33771;48.180;11.400;2022-07-29T00:25:48;18.70;99.90
48007;DHT22;33771;48.180;11.400;2022-07-29T00:28:13;18.70;99.90
48007;DHT22;33771;48.180;11.400;2022-07-29T00:30:39;18.70;99.90
48007;DHT22;33771;48.180;11.400;2022-07-29T00:33:07;18.70;99.90
48007;DHT22;33771;48.180;11.400;2022-07-29T00:35:32;18.70;99.90
48007;DHT22;33771;48.180;11.400;2022-07-29T00:38:15;18.70;99.90
48007;DHT22;33771;48.180;11.400;2022-07-29T00:40:40;18.60;99.90
48007;DHT22;33771;48.180;11.400;2022-07-29T00:43:07;18.60;99.90
48007;DHT22;33771;48.180;11.400;2022-07-29T00:45:33;18.60;99.90
48007;DHT22;33771;48.180;11.400;2022-07-29T00:47:59;18.60;99.90
48007;DHT22;33771;48.180;11.400;2022-07-29T00:50:25;18.70;99.90
48007;DHT22;33771;48.180;11.400;2022-07-29T00:52:52;18.60;99.90
48007;DHT22;33771;48.180;11.400;2022-07-29T00:55:18;18.60;99.90
48007;DHT22;33771;48.180;11.400;2022-07-29T00:57:45;18.60;99.90
48007;DHT22;33771;48.180;11.400;2022-07-29T01:00:22;18.60;99.90
48007;DHT22;33771;48.180;11.400;2022-07-29T01:02:48;18.60;99.90
48007;DHT22;33771;48.180;11.400;2022-07-29T01:05:16;18.60;99.90
48007;DHT22;33771;48.180;11.400;2022-07-29T01:07:42;18.50;99.90
48007;DHT22;33771;48.180;11.400;2022-07-29T01:10:09;18.50;99.90
48007;DHT22;33771;48.180;11.400;2022-07-29T01:12:37;18.50;99.90
48007;DHT22;33771;48.180;11.400;2022-07-29T01:15:05;18.50;99.90
48007;DHT22;33771;48.180;11.400;2022-07-29T01:27:06;18.40;99.90
48007;DHT22;33771;48.180;11.400;2022-07-29T01:29:45;18.40;99.90
48007;DHT22;33771;48.180;11.400;2022-07-29T01:32:15;18.40;99.90
48007;DHT22;33771;48.180;11.400;2022-07-29T01:35:06;18.40;99.90
48007;DHT22;33771;48.180;11.400;2022-07-29T01:37:50;18.30;99.90
48007;DHT22;33771;48.180;11.400;2022-07-29T01:40:36;18.30;99.90
48007;DHT22;33771;48.180;11.400;2022-07-29T01:43:18;18.30;99.90
48007;DHT22;33771;48.180;11.400;2022-07-29T01:45:48;18.30;99.90
48007;DHT22;33771;48.180;11.400;2022-07-29T01:48:22;18.30;99.90
48007;DHT22;33771;48.180;11.400;2022-07-29T01:50:56;18.30;99.90
48007;DHT22;33771;48.180;11.400;2022-07-29T01:53:31;18.30;99.90
48007;DHT22;33771;48.180;11.400;2022-07-29T01:56:00;18.40;99.90
48007;DHT22;33771;48.180;11.400;2022-07-29T01:58:28;18.30;99.90
48007;DHT22;33771;48.180;11.400;2022-07-29T02:00:56;18.30;99.90
48007;DHT22;33771;48.180;11.400;2022-07-29T02:03:23;18.30;99.90
48007;DHT22;33771;48.180;11.400;2022-07-29T02:05:49;18.30;99.90
48007;DHT22;33771;48.180;11.400;2022-07-29T02:08:17;18.30;99.90
48007;DHT22;33771;48.180;11.400;2022-07-29T02:10:45;18.30;99.90
48007;DHT22;33771;48.180;11.400;2022-07-29T02:13:13;18.30;99.90
48007;DHT22;33771;48.180;11.400;2022-07-29T02:15:41;18.20;99.90
48007;DHT22;33771;48.180;11.400;2022-07-29T02:18:11;18.20;99.90
48007;DHT22;33771;48.180;11.400;2022-07-29T02:20:39;18.20;99.90
48007;DHT22;33771;48.180;11.400;2022-07-29T02:23:07;18.20;99.90
48007;DHT22;33771;48.180;11.400;2022-07-29T02:25:36;18.10;99.90
48007;DHT22;33771;48.180;11.400;2022-07-29T02:28:04;18.10;99.90
48007;DHT22;33771;48.180;11.400;2022-07-29T02:30:31;18.10;99.90
48007;DHT22;33771;48.180;11.400;2022-07-29T02:32:57;18.10;99.90
48007;DHT22;33771;48.180;11.400;2022-07-29T02:35:26;18.10;99.90
48007;DHT22;33771;48.180;11.400;2022-07-29T02:37:52;18.10;99.90
48007;DHT22;33771;48.180;11.400;2022-07-29T02:40:38;18.00;99.90
48007;DHT22;33771;48.180;11.400;2022-07-29T02:43:05;18.00;99.90
48007;DHT22;33771;48.180;11.400;2022-07-29T02:45:33;18.00;99.90
48007;DHT22;33771;48.180;11.400;2022-07-29T02:48:00;17.90;99.90
48007;DHT22;33771;48.180;11.400;2022-07-29T02:50:41;17.90;99.90
48007;DHT22;33771;48.180;11.400;2022-07-29T02:53:15;17.80;99.90
48007;DHT22;33771;48.180;11.400;2022-07-29T02:55:51;17.80;99.90
48007;DHT22;33771;48.180;11.400;2022-07-29T02:58:36;17.60;99.90
48007;DHT22;33771;48.180;11.400;2022-07-29T03:01:08;17.60;99.90
48007;DHT22;33771;48.180;11.400;2022-07-29T03:03:37;17.50;99.90
48007;DHT22;33771;48.180;11.400;2022-07-29T03:06:04;17.40;99.90
48007;DHT22;33771;48.180;11.400;2022-07-29T03:08:31;17.40;99.90
48007;DHT22;33771;48.180;11.400;2022-07-29T03:10:57;17.30;99.90
48007;DHT22;33771;48.180;11.400;2022-07-29T03:13:24;17.30;99.90
48007;DHT22;33771;48.180;11.400;2022-07-29T03:15:51;17.30;99.90
48007;DHT22;33771;48.180;11.400;2022-07-29T03:18:17;17.20;99.90
48007;DHT22;33771;48.180;11.400;2022-07-29T03:20:43;17.20;99.90
48007;DHT22;33771;48.180;11.400;2022-07-29T03:23:09;17.10;99.90
48007;DHT22;33771;48.180;11.400;2022-07-29T03:25:35;17.10;99.90
48007;DHT22;33771;48.180;11.400;2022-07-29T03:28:00;17.10;99.90
48007;DHT22;33771;48.180;11.400;2022-07-29T03:30:26;17.00;99.90
48007;DHT22;33771;48.180;11.400;2022-07-29T03:32:52;17.00;99.90
48007;DHT22;33771;48.180;11.400;2022-07-29T03:35:21;16.90;99.90
48007;DHT22;33771;48.180;11.400;2022-07-29T03:37:48;16.90;99.90
48007;DHT22;33771;48.180;11.400;2022-07-29T03:40:18;16.90;99.90
48007;DHT22;33771;48.180;11.400;2022-07-29T03:42:45;16.90;99.90
48007;DHT22;33771;48.180;11.400;2022-07-29T03:45:16;16.80;99.90
48007;DHT22;33771;48.180;11.400;2022-07-29T03:47:47;16.80;99.90
48007;DHT22;33771;48.180;11.400;2022-07-29T03:50:15;16.80;99.90
48007;DHT22;33771;48.180;11.400;2022-07-29T03:52:41;16.80;99.90
48007;DHT22;33771;48.180;11.400;2022-07-29T03:55:08;16.80;99.90
48007;DHT22;33771;48.180;11.400;2022-07-29T03:57:34;16.70;99.90
48007;DHT22;33771;48.180;11.400;2022-07-29T04:00:02;16.70;99.90
48007;DHT22;33771;48.180;11.400;2022-07-29T04:02:29;16.70;99.90
48007;DHT22;33771;48.180;11.400;2022-07-29T04:04:54;16.60;99.90
48007;DHT22;33771;48.180;11.400;2022-07-29T04:07:20;16.70;99.90
48007;DHT22;33771;48.180;11.400;2022-07-29T04:09:46;16.70;99.90
48007;DHT22;33771;48.180;11.400;2022-07-29T04:12:11;16.70;99.90
48007;DHT22;33771;48.180;11.400;2022-07-29T04:14:37;16.80;99.90
48007;DHT22;33771;48.180;11.400;2022-07-29T04:17:03;16.80;99.90
48007;DHT22;33771;48.180;11.400;2022-07-29T04:19:30;16.80;99.90
48007;DHT22;33771;48.180;11.400;2022-07-29T04:21:57;16.80;99.90
48007;DHT22;33771;48.180;11.400;2022-07-29T04:24:23;16.90;99.90
48007;DHT22;33771;48.180;11.400;2022-07-29T04:26:49;16.90;99.90
48007;DHT22;33771;48.180;11.400;2022-07-29T04:29:14;17.00;99.90
48007;DHT22;33771;48.180;11.400;2022-07-29T04:31:41;17.00;99.90
48007;DHT22;33771;48.180;11.400;2022-07-29T04:34:07;17.00;99.90
48007;DHT22;33771;48.180;11.400;2022-07-29T04:36:32;17.10;99.90
48007;DHT22;33771;48.180;11.400;2022-07-29T04:38:58;17.20;99.90
48007;DHT22;33771;48.180;11.400;2022-07-29T04:41:24;17.20;99.90
48007;DHT22;33771;48.180;11.400;2022-07-29T04:43:49;17.30;99.90
48007;DHT22;33771;48.180;11.400;2022-07-29T04:46:15;17.40;99.90
48007;DHT22;33771;48.180;11.400;2022-07-29T04:48:41;17.50;99.90
48007;DHT22;33771;48.180;11.400;2022-07-29T04:51:06;17.60;99.90
48007;DHT22;33771;48.180;11.400;2022-07-29T04:53:32;17.60;99.90
48007;DHT22;33771;48.180;11.400;2022-07-29T04:55:58;17.70;99.90
48007;DHT22;33771;48.180;11.400;2022-07-29T04:58:23;17.70;99.90
48007;DHT22;33771;48.180;11.400;2022-07-29T05:00:50;17.60;99.90
48007;DHT22;33771;48.180;11.400;2022-07-29T05:03:16;17.70;99.90
48007;DHT22;33771;48.180;11.400;2022-07-29T05:05:42;17.70;99.90
48007;DHT22;33771;48.180;11.400;2022-07-29T05:08:08;17.70;99.90
48007;DHT22;33771;48.180;11.400;2022-07-29T05:10:37;17.70;99.90
48007;DHT22;33771;48.180;11.400;2022-07-29T05:13:06;17.70;99.90
48007;DHT22;33771;48.180;11.400;2022-07-29T05:15:36;17.70;99.90
48007;DHT22;33771;48.180;11.400;2022-07-29T05:18:02;17.80;99.90
48007;DHT22;33771;48.180;11.400;2022-07-29T05:20:28;17.80;99.90
48007;DHT22;33771;48.180;11.400;2022-07-29T05:22:58;17.90;99.90
48007;DHT22;33771;48.180;11.400;2022-07-29T05:25:25;17.90;99.90
48007;DHT22;33771;48.180;11.400;2022-07-29T05:27:51;18.00;99.90
48007;DHT22;33771;48.180;11.400;2022-07-29T05:30:17;18.00;99.90
48007;DHT22;33771;48.180;11.400;2022-07-29T05:32:43;18.10;99.90
48007;DHT22;33771;48.180;11.400;2022-07-29T05:35:08;18.10;99.90
48007;DHT22;33771;48.180;11.400;2022-07-29T05:37:34;18.10;99.90
48007;DHT22;33771;48.180;11.400;2022-07-29T05:39:59;18.20;99.90
48007;DHT22;33771;48.180;11.400;2022-07-29T05:42:25;18.20;99.90
48007;DHT22;33771;48.180;11.400;2022-07-29T05:44:51;18.30;99.90
48007;DHT22;33771;48.180;11.400;2022-07-29T05:47:17;18.30;99.90
48007;DHT22;33771;48.180;11.400;2022-07-29T05:49:43;18.40;99.90
48007;DHT22;33771;48.180;11.400;2022-07-29T05:52:09;18.50;99.90
48007;DHT22;33771;48.180;11.400;2022-07-29T05:54:35;18.60;99.90
48007;DHT22;33771;48.180;11.400;2022-07-29T05:57:01;18.70;99.90
48007;DHT22;33771;48.180;11.400;2022-07-29T05:59:26;18.80;99.90
48007;DHT22;33771;48.180;11.400;2022-07-29T06:01:52;18.90;99.90
48007;DHT22;33771;48.180;11.400;2022-07-29T06:04:18;19.00;99.90
48007;DHT22;33771;48.180;11.400;2022-07-29T06:06:43;19.10;99.90
48007;DHT22;33771;48.180;11.400;2022-07-29T06:09:09;19.20;99.90
48007;DHT22;33771;48.180;11.400;2022-07-29T06:11:34;19.30;99.90
48007;DHT22;33771;48.180;11.400;2022-07-29T06:14:00;19.40;99.90
48007;DHT22;33771;48.180;11.400;2022-07-29T06:16:25;19.60;99.90
48007;DHT22;33771;48.180;11.400;2022-07-29T06:18:51;19.70;99.90
48007;DHT22;33771;48.180;11.400;2022-07-29T06:21:19;19.80;99.90
48007;DHT22;33771;48.180;11.400;2022-07-29T06:23:46;19.90;99.90
48007;DHT22;33771;48.180;11.400;2022-07-29T06:26:12;20.00;99.90
48007;DHT22;33771;48.180;11.400;2022-07-29T06:28:37;20.20;99.90
48007;DHT22;33771;48.180;11.400;2022-07-29T06:31:03;20.30;99.90
48007;DHT22;33771;48.180;11.400;2022-07-29T06:33:28;20.40;99.90
48007;DHT22;33771;48.180;11.400;2022-07-29T06:35:54;20.50;99.90
48007;DHT22;33771;48.180;11.400;2022-07-29T06:38:20;20.60;99.90
48007;DHT22;33771;48.180;11.400;2022-07-29T06:40:46;20.70;99.90
48007;DHT22;33771;48.180;11.400;2022-07-29T06:43:36;20.80;99.90
48007;DHT22;33771;48.180;11.400;2022-07-29T06:46:08;20.80;99.90
48007;DHT22;33771;48.180;11.400;2022-07-29T06:48:35;20.90;99.90
48007;DHT22;33771;48.180;11.400;2022-07-29T06:51:01;20.90;99.90
48007;DHT22;33771;48.180;11.400;2022-07-29T06:53:27;20.90;99.90
48007;DHT22;33771;48.180;11.400;2022-07-29T06:55:53;21.00;99.90
48007;DHT22;33771;48.180;11.400;2022-07-29T06:58:19;21.20;99.90
48007;DHT22;33771;48.180;11.400;2022-07-29T07:00:47;21.20;99.90
48007;DHT22;33771;48.180;11.400;2022-07-29T07:03:13;21.30;99.90
48007;DHT22;33771;48.180;11.400;2022-07-29T07:05:39;21.30;99.90
48007;DHT22;33771;48.180;11.400;2022-07-29T07:08:05;21.30;99.90
48007;DHT22;33771;48.180;11.400;2022-07-29T07:10:30;21.40;99.90
48007;DHT22;33771;48.180;11.400;2022-07-29T07:12:56;21.60;99.90
48007;DHT22;33771;48.180;11.400;2022-07-29T07:15:21;21.60;99.90
48007;DHT22;33771;48.180;11.400;2022-07-29T07:17:48;21.70;99.90
48007;DHT22;33771;48.180;11.400;2022-07-29T07:20:15;21.70;99.90
48007;DHT22;33771;48.180;11.400;2022-07-29T07:22:40;21.70;99.90
48007;DHT22;33771;48.180;11.400;2022-07-29T07:25:06;21.80;99.90
48007;DHT22;33771;48.180;11.400;2022-07-29T07:27:32;21.80;99.90
48007;DHT22;33771;48.180;11.400;2022-07-29T07:29:57;21.80;99.90
48007;DHT22;33771;48.180;11.400;2022-07-29T07:32:23;21.80;99.90
48007;DHT22;33771;48.180;11.400;2022-07-29T07:34:48;21.80;99.90
48007;DHT22;33771;48.180;11.400;2022-07-29T07:37:14;21.90;99.90
48007;DHT22;33771;48.180;11.400;2022-07-29T07:39:40;22.00;99.90
48007;DHT22;33771;48.180;11.400;2022-07-29T07:42:06;22.00;99.90
48007;DHT22;33771;48.180;11.400;2022-07-29T07:44:32;22.20;99.90
48007;DHT22;33771;48.180;11.400;2022-07-29T07:46:57;22.20;99.90
48007;DHT22;33771;48.180;11.400;2022-07-29T07:49:23;22.30;99.90
48007;DHT22;33771;48.180;11.400;2022-07-29T07:51:49;22.30;99.90
48007;DHT22;33771;48.180;11.400;2022-07-29T07:54:14;22.40;99.90
48007;DHT22;33771;48.180;11.400;2022-07-29T07:56:40;22.50;99.90
48007;DHT22;33771;48.180;11.400;2022-07-29T07:59:06;22.40;99.90
48007;DHT22;33771;48.180;11.400;2022-07-29T08:01:31;22.50;99.90
48007;DHT22;33771;48.180;11.400;2022-07-29T08:03:57;22.60;99.90
48007;DHT22;33771;48.180;11.400;2022-07-29T08:06:22;22.70;99.90
48007;DHT22;33771;48.180;11.400;2022-07-29T08:08:50;22.80;99.90
48007;DHT22;33771;48.180;11.400;2022-07-29T08:11:16;22.90;99.90
48007;DHT22;33771;48.180;11.400;2022-07-29T08:13:42;22.90;99.90
48007;DHT22;33771;48.180;11.400;2022-07-29T08:16:08;23.00;99.90
48007;DHT22;33771;48.180;11.400;2022-07-29T08:18:38;23.10;99.90
48007;DHT22;33771;48.180;11.400;2022-07-29T08:21:04;23.20;99.90
48007;DHT22;33771;48.180;11.400;2022-07-29T08:23:30;23.30;99.90
48007;DHT22;33771;48.180;11.400;2022-07-29T08:26:07;23.50;99.90
48007;DHT22;33771;48.180;11.400;2022-07-29T08:28:39;23.60;99.90
48007;DHT22;33771;48.180;11.400;2022-07-29T08:31:06;23.80;99.90
48007;DHT22;33771;48.180;11.400;2022-07-29T08:33:32;23.90;99.90
48007;DHT22;33771;48.180;11.400;2022-07-29T08:35:58;24.10;99.90
48007;DHT22;33771;48.180;11.400;2022-07-29T08:38:24;24.20;99.90
48007;DHT22;33771;48.180;11.400;2022-07-29T08:40:52;24.30;99.90
48007;DHT22;33771;48.180;11.400;2022-07-29T08:43:18;24.50;99.90
48007;DHT22;33771;48.180;11.400;2022-07-29T08:45:46;24.80;99.90
48007;DHT22;33771;48.180;11.400;2022-07-29T08:48:14;24.80;99.90
48007;DHT22;33771;48.180;11.400;2022-07-29T08:50:41;24.90;99.90
48007;DHT22;33771;48.180;11.400;2022-07-29T08:53:11;25.10;99.90
48007;DHT22;33771;48.180;11.400;2022-07-29T08:55:40;25.10;99.90
48007;DHT22;33771;48.180;11.400;2022-07-29T08:58:07;25.10;99.90
48007;DHT22;33771;48.180;11.400;2022-07-29T09:00:33;25.10;99.90
48007;DHT22;33771;48.180;11.400;2022-07-29T09:03:01;25.00;99.90
48007;DHT22;33771;48.180;11.400;2022-07-29T09:05:27;25.10;99.90
48007;DHT22;33771;48.180;11.400;2022-07-29T09:07:53;25.10;99.90
48007;DHT22;33771;48.180;11.400;2022-07-29T09:10:19;25.10;99.90
48007;DHT22;33771;48.180;11.400;2022-07-29T09:12:45;25.10;99.90
48007;DHT22;33771;48.180;11.400;2022-07-29T09:15:11;25.20;99.90
48007;DHT22;33771;48.180;11.400;2022-07-29T09:17:45;25.40;99.90
48007;DHT22;33771;48.180;11.400;2022-07-29T09:20:13;25.50;99.90
48007;DHT22;33771;48.180;11.400;2022-07-29T09:22:39;25.60;99.90
48007;DHT22;33771;48.180;11.400;2022-07-29T09:25:05;25.70;99.90
48007;DHT22;33771;48.180;11.400;2022-07-29T09:27:31;25.80;99.90
48007;DHT22;33771;48.180;11.400;2022-07-29T09:30:04;25.90;99.90
48007;DHT22;33771;48.180;11.400;2022-07-29T09:32:32;25.90;99.90
48007;DHT22;33771;48.180;11.400;2022-07-29T09:35:17;25.80;99.90
48007;DHT22;33771;48.180;11.400;2022-07-29T09:37:43;25.70;99.90
48007;DHT22;33771;48.180;11.400;2022-07-29T09:40:17;25.70;99.90
48007;DHT22;33771;48.180;11.400;2022-07-29T09:42:45;25.70;99.90
48007;DHT22;33771;48.180;11.400;2022-07-29T09:45:12;25.90;99.90
48007;DHT22;33771;48.180;11.400;2022-07-29T09:47:47;26.00;99.90
48007;DHT22;33771;48.180;11.400;2022-07-29T09:50:16;25.90;99.90
48007;DHT22;33771;48.180;11.400;2022-07-29T09:52:46;25.90;99.90
48007;DHT22;33771;48.180;11.400;2022-07-29T09:55:12;25.90;99.90
48007;DHT22;33771;48.180;11.400;2022-07-29T09:57:38;25.80;99.90
48007;DHT22;33771;48.180;11.400;2022-07-29T10:00:16;25.70;99.90
48007;DHT22;33771;48.180;11.400;2022-07-29T10:02:43;25.70;99.90
48007;DHT22;33771;48.180;11.400;2022-07-29T10:05:24;25.90;99.90
48007;DHT22;33771;48.180;11.400;2022-07-29T10:07:56;26.00;99.90
48007;DHT22;33771;48.180;11.400;2022-07-29T10:12:59;26.30;99.90
48007;DHT22;33771;48.180;11.400;2022-07-29T10:15:28;26.80;99.90
48007;DHT22;33771;48.180;11.400;2022-07-29T10:17:55;27.10;99.90
48007;DHT22;33771;48.180;11.400;2022-07-29T10:20:22;27.40;99.90
48007;DHT22;33771;48.180;11.400;2022-07-29T10:22:49;27.60;99.90
48007;DHT22;33771;48.180;11.400;2022-07-29T10:25:16;27.90;99.90
48007;DHT22;33771;48.180;11.400;2022-07-29T10:27:44;27.90;99.90
48007;DHT22;33771;48.180;11.400;2022-07-29T10:30:11;28.00;99.90
48007;DHT22;33771;48.180;11.400;2022-07-29T10:41:43;29.20;99.90
48007;DHT22;33771;48.180;11.400;2022-07-29T10:44:22;29.30;99.90
48007;DHT22;33771;48.180;11.400;2022-07-29T10:46:49;29.40;99.90
48007;DHT22;33771;48.180;11.400;2022-07-29T10:49:25;29.30;99.90
48007;DHT22;33771;48.180;11.400;2022-07-29T10:51:55;29.10;99.90
48007;DHT22;33771;48.180;11.400;2022-07-29T11:05:05;28.30;99.90
48007;DHT22;33771;48.180;11.400;2022-07-29T11:07:32;28.40;99.90
48007;DHT22;33771;48.180;11.400;2022-07-29T11:10:30;28.70;99.90
48007;DHT22;33771;48.180;11.400;2022-07-29T11:12:55;29.10;99.90
48007;DHT22;33771;48.180;11.400;2022-07-29T11:15:22;29.00;99.90
48007;DHT22;33771;48.180;11.400;2022-07-29T11:20:39;29.10;99.90
48007;DHT22;33771;48.180;11.400;2022-07-29T11:23:37;29.40;99.90
48007;DHT22;33771;48.180;11.400;2022-07-29T11:26:20;29.30;99.90
48007;DHT22;33771;48.180;11.400;2022-07-29T11:31:20;29.10;99.90
48007;DHT22;33771;48.180;11.400;2022-07-29T11:33:57;29.00;99.90
48007;DHT22;33771;48.180;11.400;2022-07-29T11:36:22;29.10;99.90
48007;DHT22;33771;48.180;11.400;2022-07-29T11:38:48;28.90;99.90
48007;DHT22;33771;48.180;11.400;2022-07-29T11:43:46;28.70;99.90
48007;DHT22;33771;48.180;11.400;2022-07-29T11:46:13;28.70;99.90
48007;DHT22;33771;48.180;11.400;2022-07-29T11:48:43;28.60;99.90
48007;DHT22;33771;48.180;11.400;2022-07-29T11:51:10;28.50;99.90
48007;DHT22;33771;48.180;11.400;2022-07-29T11:53:37;28.40;99.90
48007;DHT22;33771;48.180;11.400;2022-07-29T11:56:04;28.30;99.90
48007;DHT22;33771;48.180;11.400;2022-07-29T11:58:33;28.20;99.90
48007;DHT22;33771;48.180;11.400;2022-07-29T12:00:59;28.20;99.90
48007;DHT22;33771;48.180;11.400;2022-07-29T12:03:26;28.20;99.90
48007;DHT22;33771;48.180;11.400;2022-07-29T12:05:52;28.10;99.90
48007;DHT22;33771;48.180;11.400;2022-07-29T12:08:20;28.20;99.90
48007;DHT22;33771;48.180;11.400;2022-07-29T12:10:51;28.20;99.90
48007;DHT22;33771;48.180;11.400;2022-07-29T12:13:19;28.10;99.90
48007;DHT22;33771;48.180;11.400;2022-07-29T12:15:53;28.20;99.90
48007;DHT22;33771;48.180;11.400;2022-07-29T12:18:20;28.30;99.90
48007;DHT22;33771;48.180;11.400;2022-07-29T12:20:46;28.10;99.90
48007;DHT22;33771;48.180;11.400;2022-07-29T12:23:13;27.90;99.90
48007;DHT22;33771;48.180;11.400;2022-07-29T12:25:40;27.90;99.90
48007;DHT22;33771;48.180;11.400;2022-07-29T12:28:11;27.80;99.90
48007;DHT22;33771;48.180;11.400;2022-07-29T12:30:43;27.70;99.90
48007;DHT22;33771;48.180;11.400;2022-07-29T12:33:16;27.70;99.90
48007;DHT22;33771;48.180;11.400;2022-07-29T12:35:44;27.50;99.90
48007;DHT22;33771;48.180;11.400;2022-07-29T12:38:11;27.50;99.90
48007;DHT22;33771;48.180;11.400;2022-07-29T12:40:37;27.40;99.90
48007;DHT22;33771;48.180;11.400;2022-07-29T12:43:12;27.20;99.90
48007;DHT22;33771;48.180;11.400;2022-07-29T12:45:44;27.10;99.90
48007;DHT22;33771;48.180;11.400;2022-07-29T12:48:10;26.90;99.90
48007;DHT22;33771;48.180;11.400;2022-07-29T12:50:50;26.70;99.90
48007;DHT22;33771;48.180;11.400;2022-07-29T12:53:16;26.60;99.90
48007;DHT22;33771;48.180;11.400;2022-07-29T12:55:47;26.50;99.90
48007;DHT22;33771;48.180;11.400;2022-07-29T13:01:21;26.20;99.90
48007;DHT22;33771;48.180;11.400;2022-07-29T13:03:55;26.10;99.90
48007;DHT22;33771;48.180;11.400;2022-07-29T13:06:37;26.00;99.90
48007;DHT22;33771;48.180;11.400;2022-07-29T13:09:04;25.90;99.90
48007;DHT22;33771;48.180;11.400;2022-07-29T13:11:51;25.80;99.90
48007;DHT22;33771;48.180;11.400;2022-07-29T13:14:40;25.60;99.90
48007;DHT22;33771;48.180;11.400;2022-07-29T13:17:21;25.50;99.90
48007;DHT22;33771;48.180;11.400;2022-07-29T13:20:08;25.40;99.90
48007;DHT22;33771;48.180;11.400;2022-07-29T13:22:38;25.30;99.90
48007;DHT22;33771;48.180;11.400;2022-07-29T13:25:04;25.30;99.90
48007;DHT22;33771;48.180;11.400;2022-07-29T13:27:33;25.30;99.90
48007;DHT22;33771;48.180;11.400;2022-07-29T13:30:02;25.30;99.90
48007;DHT22;33771;48.180;11.400;2022-07-29T13:32:29;25.10;99.90
48007;DHT22;33771;48.180;11.400;2022-07-29T13:34:56;25.00;99.90
48007;DHT22;33771;48.180;11.400;2022-07-29T13:37:21;25.00;99.90
48007;DHT22;33771;48.180;11.400;2022-07-29T13:39:48;24.80;99.90
48007;DHT22;33771;48.180;11.400;2022-07-29T13:42:17;24.80;99.90
48007;DHT22;33771;48.180;11.400;2022-07-29T13:44:43;24.70;99.90
48007;DHT22;33771;48.180;11.400;2022-07-29T13:47:09;24.70;99.90
48007;DHT22;33771;48.180;11.400;2022-07-29T13:49:35;24.80;99.90
48007;DHT22;33771;48.180;11.400;2022-07-29T13:52:01;24.70;99.90
48007;DHT22;33771;48.180;11.400;2022-07-29T13:54:26;24.70;99.90
48007;DHT22;33771;48.180;11.400;2022-07-29T13:56:52;24.60;99.90
48007;DHT22;33771;48.180;11.400;2022-07-29T13:59:18;24.60;99.90
48007;DHT22;33771;48.180;11.400;2022-07-29T14:01:43;24.50;99.90
48007;DHT22;33771;48.180;11.400;2022-07-29T14:04:10;24.60;99.90
48007;DHT22;33771;48.180;11.400;2022-07-29T14:06:36;24.60;99.90
48007;DHT22;33771;48.180;11.400;2022-07-29T14:09:03;24.60;99.90
48007;DHT22;33771;48.180;11.400;2022-07-29T14:11:31;24.60;99.90
48007;DHT22;33771;48.180;11.400;2022-07-29T14:13:57;24.50;99.90
48007;DHT22;33771;48.180;11.400;2022-07-29T14:16:23;24.60;99.90
48007;DHT22;33771;48.180;11.400;2022-07-29T14:18:48;24.60;99.90
48007;DHT22;33771;48.180;11.400;2022-07-29T14:21:14;24.60;99.90
48007;DHT22;33771;48.180;11.400;2022-07-29T14:23:39;24.50;99.90
48007;DHT22;33771;48.180;11.400;2022-07-29T14:26:06;24.60;99.90
48007;DHT22;33771;48.180;11.400;2022-07-29T14:28:31;24.60;99.90
48007;DHT22;33771;48.180;11.400;2022-07-29T14:30:57;24.50;99.90
48007;DHT22;33771;48.180;11.400;2022-07-29T14:33:23;24.40;99.90
48007;DHT22;33771;48.180;11.400;2022-07-29T14:35:48;24.50;99.90
48007;DHT22;33771;48.180;11.400;2022-07-29T14:38:14;24.40;99.90
48007;DHT22;33771;48.180;11.400;2022-07-29T14:40:39;24.40;99.90
48007;DHT22;33771;48.180;11.400;2022-07-29T14:43:05;24.50;99.90
48007;DHT22;33771;48.180;11.400;2022-07-29T14:45:31;24.60;99.90
48007;DHT22;33771;48.180;11.400;2022-07-29T14:47:56;24.60;99.90
48007;DHT22;33771;48.180;11.400;2022-07-29T14:50:22;24.70;99.90
48007;DHT22;33771;48.180;11.400;2022-07-29T14:52:48;24.80;99.90
48007;DHT22;33771;48.180;11.400;2022-07-29T14:55:13;24.80;99.90
48007;DHT22;33771;48.180;11.400;2022-07-29T14:57:39;24.80;99.90
48007;DHT22;33771;48.180;11.400;2022-07-29T15:00:06;24.70;99.90
48007;DHT22;33771;48.180;11.400;2022-07-29T15:02:32;24.70;99.90
48007;DHT22;33771;48.180;11.400;2022-07-29T15:04:58;24.60;99.90
48007;DHT22;33771;48.180;11.400;2022-07-29T15:07:23;24.60;99.90
48007;DHT22;33771;48.180;11.400;2022-07-29T15:09:49;24.40;99.90
48007;DHT22;33771;48.180;11.400;2022-07-29T15:12:15;24.30;99.90
48007;DHT22;33771;48.180;11.400;2022-07-29T15:14:40;24.30;99.90
48007;DHT22;33771;48.180;11.400;2022-07-29T15:17:06;24.20;99.90
48007;DHT22;33771;48.180;11.400;2022-07-29T15:19:32;24.00;99.90
48007;DHT22;33771;48.180;11.400;2022-07-29T15:21:58;23.90;99.90
48007;DHT22;33771;48.180;11.400;2022-07-29T15:24:23;23.90;99.90
48007;DHT22;33771;48.180;11.400;2022-07-29T15:26:49;23.90;99.90
48007;DHT22;33771;48.180;11.400;2022-07-29T15:29:15;24.00;99.90
48007;DHT22;33771;48.180;11.400;2022-07-29T15:31:41;24.10;99.90
48007;DHT22;33771;48.180;11.400;2022-07-29T15:34:06;24.10;99.90
48007;DHT22;33771;48.180;11.400;2022-07-29T15:36:32;24.20;99.90
48007;DHT22;33771;48.180;11.400;2022-07-29T15:38:58;24.20;99.90
48007;DHT22;33771;48.180;11.400;2022-07-29T15:41:23;24.30;99.90
48007;DHT22;33771;48.180;11.400;2022-07-29T15:43:49;24.50;99.90
48007;DHT22;33771;48.180;11.400;2022-07-29T15:46:17;24.50;99.90
48007;DHT22;33771;48.180;11.400;2022-07-29T15:49:03;24.60;99.90
48007;DHT22;33771;48.180;11.400;2022-07-29T15:51:30;24.60;99.90
48007;DHT22;33771;48.180;11.400;2022-07-29T15:53:56;24.60;99.90
48007;DHT22;33771;48.180;11.400;2022-07-29T15:56:22;24.50;99.90
48007;DHT22;33771;48.180;11.400;2022-07-29T15:58:48;24.50;99.90
48007;DHT22;33771;48.180;11.400;2022-07-29T16:01:13;24.40;99.90
48007;DHT22;33771;48.180;11.400;2022-07-29T16:03:39;24.40;99.90